createdAt,value
2022-10-15T00:01:17.573Z,143.87
2022-10-15T00:03:45.378Z,154.57
2022-10-15T00:06:18.768Z,149.57
2022-10-15T00:08:46.526Z,160.43
2022-10-15T00:11:16.813Z,154.20
2022-10-15T00:13:43.825Z,158.63
2022-10-15T00:16:14.642Z,153.60
2022-10-15T00:18:42.279Z,152.87
2022-10-15T00:21:11.362Z,142.60
2022-10-15T00:23:38.396Z,153.60
2022-10-15T00:26:08.258Z,143.73
2022-10-15T00:28:35.041Z,163.90
2022-10-15T00:31:08.048Z,148.30
2022-10-15T00:33:35.248Z,155.13
2022-10-15T00:36:08.076Z,171.60
2022-10-15T00:38:35.783Z,166.30
2022-10-15T00:41:05.302Z,153.97
2022-10-15T00:43:50.794Z,156.70
2022-10-15T00:46:23.729Z,149.00
2022-10-15T00:51:35.745Z,160.17
2022-10-15T00:54:02.698Z,171.37
2022-10-15T00:56:32.627Z,165.17
2022-10-15T00:59:00.259Z,170.37
2022-10-15T01:01:27.197Z,179.87
2022-10-15T01:03:55.730Z,192.10
2022-10-15T01:06:23.228Z,185.27
2022-10-15T01:08:50.508Z,194.23
2022-10-15T01:11:51.069Z,187.87
2022-10-15T01:14:45.228Z,171.23
2022-10-15T01:17:40.820Z,174.10
2022-10-15T01:20:41.666Z,182.70
2022-10-15T01:23:35.901Z,195.43
2022-10-15T01:26:08.595Z,176.40
2022-10-15T01:29:08.038Z,169.93
2022-10-15T01:31:46.854Z,176.93
2022-10-15T01:34:22.642Z,167.90
2022-10-15T01:37:07.305Z,154.23
2022-10-15T01:39:51.032Z,158.30
2022-10-15T01:42:27.975Z,145.03
2022-10-15T01:45:00.846Z,150.37
2022-10-15T01:47:31.430Z,148.50
2022-10-15T01:50:01.308Z,157.27
2022-10-15T01:52:32.460Z,161.87
2022-10-15T01:55:00.725Z,161.50
2022-10-15T01:57:29.868Z,165.70
2022-10-15T01:59:57.768Z,157.90
2022-10-15T02:02:25.204Z,157.67
2022-10-15T02:04:52.838Z,158.17
2022-10-15T02:07:48.183Z,158.83
2022-10-15T02:10:28.915Z,158.70
2022-10-15T02:13:22.701Z,159.87
2022-10-15T02:16:34.784Z,181.17
2022-10-15T02:19:15.580Z,157.30
2022-10-15T02:21:47.437Z,171.47
2022-10-15T02:24:23.847Z,177.87
2022-10-15T02:26:54.542Z,168.13
2022-10-15T02:29:25.613Z,170.73
2022-10-15T02:31:54.153Z,175.80
2022-10-15T02:34:25.626Z,172.10
2022-10-15T02:36:53.403Z,161.97
2022-10-15T02:39:24.408Z,169.17
2022-10-15T02:41:53.543Z,170.47
2022-10-15T02:44:21.385Z,171.53
2022-10-15T02:46:48.555Z,185.37
2022-10-15T02:49:15.521Z,188.80
2022-10-15T02:51:42.283Z,176.60
2022-10-15T02:54:09.622Z,175.17
2022-10-15T02:56:39.490Z,172.13
2022-10-15T02:59:06.772Z,173.47
2022-10-15T03:01:34.729Z,195.10
2022-10-15T03:04:02.364Z,165.87
2022-10-15T03:06:29.256Z,183.13
2022-10-15T03:08:56.015Z,177.50
2022-10-15T03:11:23.006Z,184.37
2022-10-15T03:13:49.839Z,189.23
2022-10-15T03:16:16.549Z,172.97
2022-10-15T03:18:43.471Z,188.70
2022-10-15T03:21:10.426Z,202.57
2022-10-15T03:23:37.299Z,186.00
2022-10-15T03:26:22.163Z,208.07
2022-10-15T03:28:51.728Z,189.73
2022-10-15T03:31:18.920Z,177.53
2022-10-15T03:33:48.445Z,182.73
2022-10-15T03:36:15.401Z,196.40
2022-10-15T03:38:45.382Z,203.70
2022-10-15T03:41:12.505Z,193.53
2022-10-15T03:43:41.934Z,198.53
2022-10-15T03:46:10.060Z,202.03
2022-10-15T03:48:36.905Z,219.80
2022-10-15T03:51:03.780Z,213.63
2022-10-15T03:53:30.566Z,221.57
2022-10-15T03:56:03.985Z,204.90
2022-10-15T03:58:30.707Z,230.90
2022-10-15T04:00:57.570Z,225.40
2022-10-15T04:03:24.512Z,216.60
2022-10-15T04:05:54.177Z,201.20
2022-10-15T04:08:22.083Z,218.37
2022-10-15T04:10:50.781Z,196.10
2022-10-15T04:13:17.510Z,200.20
2022-10-15T04:15:44.455Z,216.90
2022-10-15T04:18:11.706Z,204.13
2022-10-15T04:20:38.883Z,198.13
2022-10-15T04:23:05.929Z,187.10
2022-10-15T04:25:32.644Z,210.40
2022-10-15T04:27:59.400Z,219.87
2022-10-15T04:30:26.217Z,184.47
2022-10-15T04:32:53.450Z,215.73
2022-10-15T04:35:21.271Z,179.30
2022-10-15T04:37:48.250Z,186.17
2022-10-15T04:40:15.554Z,197.27
2022-10-15T04:42:42.564Z,186.50
2022-10-15T04:45:09.579Z,204.53
2022-10-15T04:47:36.375Z,208.97
2022-10-15T04:50:03.816Z,220.60
2022-10-15T04:52:30.889Z,208.50
2022-10-15T04:54:58.764Z,202.50
2022-10-15T04:57:27.153Z,223.97
2022-10-15T04:59:57.624Z,242.17
2022-10-15T05:02:24.855Z,230.40
2022-10-15T05:04:52.161Z,227.93
2022-10-15T05:07:19.008Z,227.87
2022-10-15T05:09:46.672Z,223.70
2022-10-15T05:12:13.688Z,234.40
2022-10-15T05:14:41.602Z,226.27
2022-10-15T05:17:08.429Z,222.27
2022-10-15T05:19:35.177Z,249.97
2022-10-15T05:22:02.044Z,252.30
2022-10-15T05:24:28.767Z,244.60
2022-10-15T05:26:55.999Z,245.17
2022-10-15T05:29:22.761Z,240.33
2022-10-15T05:31:53.084Z,241.07
2022-10-15T05:34:21.562Z,240.43
2022-10-15T05:36:48.307Z,229.77
2022-10-15T05:39:15.255Z,234.10
2022-10-15T05:41:42.263Z,243.77
2022-10-15T05:44:09.198Z,263.07
2022-10-15T05:46:35.954Z,262.33
2022-10-15T05:49:02.677Z,268.20
2022-10-15T05:51:29.411Z,275.47
2022-10-15T05:53:58.424Z,263.57
2022-10-15T05:56:26.281Z,264.53
2022-10-15T05:58:53.098Z,251.53
2022-10-15T06:01:19.855Z,279.03
2022-10-15T06:03:46.815Z,289.07
2022-10-15T06:06:25.152Z,261.67
2022-10-15T06:08:53.482Z,249.77
2022-10-15T06:11:20.828Z,266.10
2022-10-15T06:13:47.865Z,258.87
2022-10-15T06:16:19.377Z,258.87
2022-10-15T06:18:49.682Z,283.13
2022-10-15T06:21:16.496Z,285.57
2022-10-15T06:23:43.194Z,245.50
2022-10-15T06:26:10.463Z,247.77
2022-10-15T06:28:37.908Z,259.33
2022-10-15T06:31:06.178Z,256.30
2022-10-15T06:33:33.377Z,314.17
2022-10-15T06:36:06.681Z,246.03
2022-10-15T06:38:34.145Z,268.53
2022-10-15T06:41:03.644Z,256.00
2022-10-15T06:43:31.240Z,251.90
2022-10-15T06:46:01.010Z,253.97
2022-10-15T06:48:28.087Z,251.87
2022-10-15T06:50:54.822Z,260.93
2022-10-15T06:53:23.168Z,272.07
2022-10-15T06:55:49.888Z,271.07
2022-10-15T06:58:16.651Z,249.63
2022-10-15T07:00:43.412Z,248.07
2022-10-15T07:03:10.147Z,226.17
2022-10-15T07:05:36.899Z,220.90
2022-10-15T07:08:03.791Z,211.60
2022-10-15T07:10:30.602Z,192.67
2022-10-15T07:13:00.351Z,197.20
2022-10-15T07:15:27.592Z,198.90
2022-10-15T07:18:01.768Z,170.70
2022-10-15T07:20:31.932Z,149.63
2022-10-15T07:23:00.805Z,145.57
2022-10-15T07:25:28.583Z,138.20
2022-10-15T07:27:56.285Z,124.77
2022-10-15T07:30:27.325Z,124.73
2022-10-15T07:32:56.670Z,125.43
2022-10-15T07:35:23.807Z,125.33
2022-10-15T07:37:50.882Z,125.03
2022-10-15T07:40:18.533Z,131.20
2022-10-15T07:42:45.595Z,131.70
2022-10-15T07:45:13.117Z,123.70
2022-10-15T07:47:41.539Z,128.17
2022-10-15T07:50:08.687Z,119.03
2022-10-15T07:52:35.374Z,113.17
2022-10-15T07:55:02.090Z,114.37
2022-10-15T07:57:28.765Z,109.17
2022-10-15T07:59:55.476Z,100.77
2022-10-15T08:02:22.849Z,100.20
2022-10-15T08:04:50.452Z,94.40
2022-10-15T08:07:17.114Z,82.93
2022-10-15T08:09:43.979Z,93.07
2022-10-15T08:12:10.804Z,76.70
2022-10-15T08:14:38.770Z,58.77
2022-10-15T08:17:06.165Z,67.07
2022-10-15T08:19:33.414Z,63.87
2022-10-15T08:22:00.219Z,64.93
2022-10-15T08:24:27.078Z,59.83
2022-10-15T08:26:53.832Z,60.30
2022-10-15T08:29:20.669Z,70.07
2022-10-15T08:31:47.745Z,61.47
2022-10-15T08:34:14.487Z,55.73
2022-10-15T08:36:41.281Z,52.40
2022-10-15T08:39:09.304Z,55.17
2022-10-15T08:41:49.621Z,50.50
2022-10-15T08:44:26.114Z,54.27
2022-10-15T08:47:18.356Z,51.73
2022-10-15T08:49:53.335Z,56.93
2022-10-15T08:52:42.683Z,53.23
2022-10-15T08:55:13.372Z,54.20
2022-10-15T08:57:48.939Z,50.53
2022-10-15T09:00:26.062Z,52.03
2022-10-15T09:02:59.561Z,48.33
2022-10-15T09:05:50.523Z,45.67
2022-10-15T09:08:41.154Z,47.92
2022-10-15T09:11:28.137Z,46.47
2022-10-15T09:13:55.910Z,48.80
2022-10-15T09:16:35.669Z,42.85
2022-10-15T09:19:05.485Z,43.00
2022-10-15T09:21:35.813Z,41.83
2022-10-15T09:24:03.617Z,42.25
2022-10-15T09:26:45.396Z,39.53
2022-10-15T09:29:24.930Z,39.80
2022-10-15T09:32:01.882Z,32.55
2022-10-15T09:34:40.217Z,34.85
2022-10-15T09:37:31.334Z,32.85
2022-10-15T09:40:18.443Z,28.95
2022-10-15T09:42:50.087Z,29.15
2022-10-15T09:45:17.551Z,30.30
2022-10-15T09:47:44.584Z,27.98
2022-10-15T09:50:13.858Z,28.20
2022-10-15T09:53:14.934Z,29.95
2022-10-15T09:55:50.693Z,27.23
2022-10-15T09:58:40.061Z,25.80
2022-10-15T10:01:08.053Z,23.10
2022-10-15T10:03:36.866Z,22.50
2022-10-15T10:06:12.051Z,19.67
2022-10-15T10:08:41.463Z,20.67
2022-10-15T10:11:11.322Z,18.08
2022-10-15T10:13:48.151Z,19.67
2022-10-15T10:16:21.254Z,20.70
2022-10-15T10:19:14.489Z,17.88
2022-10-15T10:21:43.421Z,20.02
2022-10-15T10:24:31.987Z,17.77
2022-10-15T10:27:00.416Z,17.98
2022-10-15T10:29:35.724Z,18.52
2022-10-15T10:32:21.313Z,18.08
2022-10-15T10:34:52.389Z,19.42
2022-10-15T10:37:19.728Z,23.92
2022-10-15T10:39:53.142Z,23.75
2022-10-15T10:42:20.122Z,22.00
2022-10-15T10:44:47.067Z,23.75
2022-10-15T10:47:26.051Z,21.42
2022-10-15T10:49:58.111Z,22.65
2022-10-15T10:52:37.166Z,21.42
2022-10-15T10:55:20.866Z,24.30
2022-10-15T10:58:02.318Z,23.45
2022-10-15T11:00:49.799Z,27.05
2022-10-15T11:03:36.524Z,29.08
2022-10-15T11:06:23.988Z,23.55
2022-10-15T11:09:18.029Z,24.88
2022-10-15T11:12:12.529Z,26.75
2022-10-15T11:14:45.797Z,26.23
2022-10-15T11:17:46.609Z,24.65
2022-10-15T11:20:57.877Z,24.92
2022-10-15T11:24:01.043Z,23.73
2022-10-15T11:26:59.241Z,23.67
2022-10-15T11:29:44.829Z,24.73
2022-10-15T11:33:05.668Z,26.33
2022-10-15T11:36:06.958Z,27.80
2022-10-15T11:38:44.547Z,25.58
2022-10-15T11:41:29.452Z,23.90
2022-10-15T11:44:22.238Z,24.55
2022-10-15T11:47:12.012Z,23.88
2022-10-15T11:49:56.671Z,20.38
2022-10-15T11:52:34.278Z,19.38
2022-10-15T11:55:20.813Z,19.92
2022-10-15T11:57:51.695Z,19.58
2022-10-15T12:00:44.985Z,19.25
2022-10-15T12:03:19.593Z,17.48
2022-10-15T12:05:57.298Z,19.08
2022-10-15T12:08:26.399Z,17.67
2022-10-15T12:11:02.982Z,17.88
2022-10-15T12:13:39.216Z,14.07
2022-10-15T12:16:27.002Z,14.38
2022-10-15T12:19:12.080Z,14.38
2022-10-15T12:21:59.949Z,15.43
2022-10-15T12:24:40.814Z,12.95
2022-10-15T12:27:35.716Z,15.63
2022-10-15T12:30:02.460Z,12.50
2022-10-15T12:32:41.988Z,15.80
2022-10-15T12:35:14.504Z,12.40
2022-10-15T12:37:43.565Z,12.27
2022-10-15T12:40:22.569Z,12.45
2022-10-15T12:43:02.671Z,12.45
2022-10-15T12:45:41.572Z,14.20
2022-10-15T12:48:08.286Z,11.02
2022-10-15T12:50:37.327Z,14.38
2022-10-15T12:53:28.674Z,12.05
2022-10-15T12:56:23.665Z,10.63
2022-10-15T12:58:53.065Z,9.93
2022-10-15T13:01:19.850Z,9.63
2022-10-15T13:03:54.529Z,9.70
2022-10-15T13:06:21.324Z,8.63
2022-10-15T13:08:58.049Z,14.05
2022-10-15T13:11:31.597Z,7.20
2022-10-15T13:14:24.123Z,9.32
2022-10-15T13:16:50.890Z,9.93
2022-10-15T13:19:20.951Z,8.85
2022-10-15T13:21:54.018Z,8.60
2022-10-15T13:24:23.867Z,12.70
2022-10-15T13:26:50.854Z,9.90
2022-10-15T13:29:26.340Z,12.05
2022-10-15T13:31:56.771Z,12.07
2022-10-15T13:34:36.584Z,10.60
2022-10-15T13:37:05.366Z,11.98
2022-10-15T13:39:40.088Z,11.18
2022-10-15T13:42:22.978Z,9.82
2022-10-15T13:45:03.163Z,10.07
2022-10-15T13:47:37.128Z,10.82
2022-10-15T13:50:25.720Z,12.93
2022-10-15T13:52:55.626Z,10.60
2022-10-15T13:55:26.361Z,9.13
2022-10-15T13:57:59.386Z,10.65
2022-10-15T14:00:31.146Z,9.68
2022-10-15T14:03:29.301Z,10.05
2022-10-15T14:05:57.314Z,10.40
2022-10-15T14:08:35.196Z,10.35
2022-10-15T14:11:02.385Z,9.95
2022-10-15T14:13:29.149Z,11.63
2022-10-15T14:18:36.970Z,11.82
2022-10-15T14:21:10.244Z,11.23
2022-10-15T14:23:37.161Z,12.27
2022-10-15T14:26:04.568Z,9.50
2022-10-15T14:28:38.076Z,11.82
2022-10-15T14:31:06.101Z,10.82
2022-10-15T14:33:39.328Z,10.00
2022-10-15T14:36:31.134Z,9.25
2022-10-15T14:39:34.556Z,11.98
2022-10-15T14:42:06.439Z,13.20
2022-10-15T14:44:47.784Z,9.57
2022-10-15T14:47:27.213Z,10.82
2022-10-15T14:49:58.021Z,10.30
2022-10-15T14:52:24.978Z,12.10
2022-10-15T14:55:11.809Z,15.95
2022-10-15T14:57:45.464Z,12.98
2022-10-15T15:00:28.949Z,12.00
2022-10-15T15:02:57.815Z,11.88
2022-10-15T15:05:27.112Z,14.80
2022-10-15T15:07:55.976Z,12.15
2022-10-15T15:10:24.689Z,13.80
2022-10-15T15:12:56.080Z,13.23
2022-10-15T15:15:27.490Z,12.13
2022-10-15T15:17:54.297Z,11.68
2022-10-15T15:20:22.271Z,11.52
2022-10-15T15:22:52.085Z,10.15
2022-10-15T15:25:33.813Z,9.48
2022-10-15T15:28:01.617Z,9.35
2022-10-15T15:30:30.786Z,9.95
2022-10-15T15:32:58.243Z,10.10
2022-10-15T15:35:51.189Z,10.98
2022-10-15T15:38:23.763Z,9.25
2022-10-15T15:40:51.131Z,7.78
2022-10-15T15:43:19.502Z,7.93
2022-10-15T15:45:47.149Z,10.88
2022-10-15T15:48:14.273Z,10.77
2022-10-15T15:50:41.627Z,8.95
2022-10-15T15:53:10.953Z,7.72
2022-10-15T15:55:37.777Z,6.68
2022-10-15T15:58:04.876Z,8.73
2022-10-15T16:00:32.227Z,6.95
2022-10-15T16:03:00.205Z,7.82
2022-10-15T16:05:26.962Z,7.13
2022-10-15T16:07:53.849Z,6.88
2022-10-15T16:10:20.693Z,7.60
2022-10-15T16:12:47.478Z,7.68
2022-10-15T16:15:15.479Z,7.53
2022-10-15T16:17:43.880Z,8.02
2022-10-15T16:20:11.213Z,6.72
2022-10-15T16:22:38.401Z,6.63
2022-10-15T16:25:05.573Z,6.80
2022-10-15T16:27:34.489Z,7.25
2022-10-15T16:30:05.000Z,6.28
2022-10-15T16:32:31.821Z,6.50
2022-10-15T16:34:58.945Z,7.13
2022-10-15T16:37:26.055Z,6.47
2022-10-15T16:39:53.121Z,5.03
2022-10-15T16:42:20.108Z,15.50
2022-10-15T16:44:46.879Z,7.23
2022-10-15T16:47:15.128Z,10.07
2022-10-15T16:49:42.940Z,5.60
2022-10-15T16:52:09.860Z,8.23
2022-10-15T16:54:36.900Z,11.10
2022-10-15T16:57:03.725Z,14.50
2022-10-15T16:59:30.767Z,11.80
2022-10-15T17:01:57.681Z,13.23
2022-10-15T17:04:24.579Z,13.23
2022-10-15T17:06:51.288Z,14.67
2022-10-15T17:09:18.113Z,11.83
2022-10-15T17:11:46.957Z,10.83
2022-10-15T17:14:15.602Z,12.03
2022-10-15T17:16:43.846Z,11.57
2022-10-15T17:19:11.783Z,10.17
2022-10-15T17:21:40.360Z,9.73
2022-10-15T17:24:12.505Z,9.57
2022-10-15T17:26:40.720Z,11.10
2022-10-15T17:29:16.536Z,11.57
2022-10-15T17:31:43.449Z,11.03
2022-10-15T17:34:11.516Z,12.37
2022-10-15T17:36:44.948Z,10.37
2022-10-15T17:39:15.230Z,13.23
2022-10-15T17:41:43.860Z,10.97
2022-10-15T17:44:12.481Z,11.33
2022-10-15T17:46:39.795Z,11.43
2022-10-15T17:49:08.005Z,9.27
2022-10-15T17:51:35.288Z,8.60
2022-10-15T17:54:02.639Z,11.20
2022-10-15T17:56:32.205Z,10.87
2022-10-15T17:59:01.353Z,13.07
2022-10-15T18:01:56.141Z,14.63
2022-10-15T18:04:17.434Z,12.93
2022-10-15T18:06:45.022Z,10.70
2022-10-15T18:09:11.863Z,7.93
2022-10-15T18:11:38.669Z,8.73
2022-10-15T18:14:05.636Z,11.87
2022-10-15T18:16:32.808Z,11.67
2022-10-15T18:18:59.578Z,9.07
2022-10-15T18:21:28.346Z,8.70
2022-10-15T18:23:58.301Z,9.13
2022-10-15T18:26:25.597Z,9.97
2022-10-15T18:28:54.501Z,10.03
2022-10-15T18:31:22.702Z,9.37
2022-10-15T18:33:52.151Z,7.03
2022-10-15T18:36:29.993Z,11.03
2022-10-15T18:38:57.200Z,9.03
2022-10-15T18:41:30.571Z,8.57
2022-10-15T18:44:00.355Z,7.87
2022-10-15T18:46:28.273Z,8.40
2022-10-15T18:48:55.603Z,8.17
2022-10-15T18:51:25.219Z,7.80
2022-10-15T18:53:53.395Z,7.20
2022-10-15T18:56:20.952Z,7.97
2022-10-15T18:58:48.723Z,7.33
2022-10-15T19:01:31.414Z,10.97
2022-10-15T19:04:00.435Z,9.40
2022-10-15T19:06:30.246Z,8.00
2022-10-15T19:08:58.186Z,13.10
2022-10-15T19:11:25.334Z,12.57
2022-10-15T19:13:53.575Z,12.93
2022-10-15T19:16:20.320Z,12.30
2022-10-15T19:18:47.213Z,10.60
2022-10-15T19:21:14.104Z,10.03
2022-10-15T19:23:40.909Z,10.73
2022-10-15T19:26:12.732Z,13.53
2022-10-15T19:28:39.743Z,9.00
2022-10-15T19:31:09.600Z,10.80
2022-10-15T19:33:38.093Z,10.47
2022-10-15T19:36:05.426Z,13.13
2022-10-15T19:38:32.265Z,9.97
2022-10-15T19:41:05.386Z,8.37
2022-10-15T19:43:33.250Z,11.83
2022-10-15T19:46:03.799Z,8.07
2022-10-15T19:48:31.647Z,9.93
2022-10-15T19:51:01.951Z,10.00
2022-10-15T19:53:29.615Z,12.40
2022-10-15T19:56:05.376Z,9.40
2022-10-15T19:58:33.594Z,10.60
2022-10-15T20:01:01.231Z,11.13
2022-10-15T20:03:30.442Z,9.73
2022-10-15T20:05:58.412Z,9.63
2022-10-15T20:08:26.195Z,8.97
2022-10-15T20:10:53.358Z,9.87
2022-10-15T20:13:22.588Z,10.57
2022-10-15T20:15:53.008Z,8.73
2022-10-15T20:18:21.949Z,7.67
2022-10-15T20:20:49.561Z,7.43
2022-10-15T20:23:18.048Z,9.37
2022-10-15T20:25:45.736Z,9.27
2022-10-15T20:28:14.270Z,9.67
2022-10-15T20:30:42.092Z,8.40
2022-10-15T20:33:10.535Z,11.23
2022-10-15T20:35:40.255Z,9.53
2022-10-15T20:38:08.217Z,11.47
2022-10-15T20:40:39.205Z,8.53
2022-10-15T20:43:06.142Z,8.60
2022-10-15T20:45:46.310Z,8.00
2022-10-15T20:48:20.152Z,9.20
2022-10-15T20:50:51.195Z,6.27
2022-10-15T20:53:19.426Z,7.27
2022-10-15T20:55:47.360Z,10.43
2022-10-15T21:00:42.438Z,10.80
2022-10-15T21:03:11.375Z,10.93
2022-10-15T21:05:38.275Z,8.87
2022-10-15T21:08:05.259Z,6.33
2022-10-15T21:10:32.179Z,10.03
2022-10-15T21:12:59.109Z,8.50
2022-10-15T21:15:27.632Z,8.73
2022-10-15T21:17:55.019Z,11.67
2022-10-15T21:20:23.276Z,13.77
2022-10-15T21:22:50.133Z,7.73
2022-10-15T21:25:17.045Z,10.37
2022-10-15T21:27:43.970Z,7.83
2022-10-15T21:30:13.265Z,9.93
2022-10-15T21:32:40.151Z,7.23
2022-10-15T21:35:07.372Z,8.40
2022-10-15T21:37:36.193Z,10.50
2022-10-15T21:40:06.546Z,7.00
2022-10-15T21:42:33.738Z,8.73
2022-10-15T21:45:00.847Z,9.70
2022-10-15T21:47:27.750Z,9.97
2022-10-15T21:49:55.045Z,7.33
2022-10-15T21:52:21.909Z,7.43
2022-10-15T21:54:52.306Z,6.10
2022-10-15T21:57:19.183Z,7.83
2022-10-15T21:59:45.961Z,9.40
2022-10-15T22:02:12.932Z,8.63
2022-10-15T22:04:40.135Z,8.63
2022-10-15T22:07:09.211Z,8.80
2022-10-15T22:09:37.448Z,9.07
2022-10-15T22:12:04.480Z,9.97
2022-10-15T22:14:31.319Z,6.60
2022-10-15T22:16:58.189Z,14.60
2022-10-15T22:19:25.146Z,11.27
2022-10-15T22:21:51.993Z,8.60
2022-10-15T22:24:20.827Z,9.73
2022-10-15T22:26:50.558Z,6.90
2022-10-15T22:29:33.082Z,8.33
2022-10-15T22:32:01.467Z,11.20
2022-10-15T22:34:28.289Z,4.83
2022-10-15T22:36:55.380Z,7.50
2022-10-15T22:39:22.476Z,6.63
2022-10-15T22:41:50.408Z,5.03
2022-10-15T22:44:20.981Z,5.33
2022-10-15T22:46:49.836Z,7.57
2022-10-15T22:49:19.709Z,7.97
2022-10-15T22:51:48.071Z,9.53
2022-10-15T22:54:24.280Z,9.33
2022-10-15T22:56:53.828Z,7.77
2022-10-15T22:59:21.261Z,6.80
2022-10-15T23:01:48.693Z,6.60
2022-10-15T23:04:17.798Z,4.77
2022-10-15T23:06:44.938Z,7.93
2022-10-15T23:09:18.347Z,6.60
2022-10-15T23:11:45.717Z,5.87
2022-10-15T23:14:16.415Z,5.37
2022-10-15T23:16:45.838Z,5.07
2022-10-15T23:19:23.897Z,7.20
2022-10-15T23:21:56.633Z,8.27
2022-10-15T23:24:26.294Z,8.07
2022-10-15T23:26:54.171Z,5.80
2022-10-15T23:29:23.603Z,6.47
2022-10-15T23:31:50.875Z,6.03
2022-10-15T23:34:23.742Z,7.40
2022-10-15T23:36:51.320Z,4.10
2022-10-15T23:39:21.401Z,5.57
2022-10-15T23:41:48.551Z,5.30
2022-10-15T23:44:15.516Z,4.00
2022-10-15T23:46:42.913Z,8.37
2022-10-15T23:49:10.144Z,5.73
2022-10-15T23:51:37.545Z,4.63
2022-10-15T23:54:14.297Z,8.20
2022-10-15T23:56:41.823Z,4.77
2022-10-15T23:59:08.856Z,6.47
